Terminal Aerodrome Forecast
Issued by NWS Tiyan, Guam

Home | Current Version | Previous Version | Text Only | Print | Product List | Glossary On
Versions: 1 2 3 4 5 6 7 8 9 10 11 12 13 14
000
FTPQ31 PGUM 241723
TAFGUM
TAF
PGUM 241723Z 2418/2524 17006KT P6SM VCSH SCT015 SCT050
     FM250100 17010KT P6SM VCSH SCT018 SCT035=

USA.gov is the U.S. government's official web portal to all federal, state and local government web resources and services.